sensor_id;sensor_type;location;lat;lon;timestamp;P1;durP1;ratioP1;P2;durP2;ratioP2
19883;SDS011;10104;50.732;10.174;2023-04-23T00:00:25;2.73;;;2.30;;
19883;SDS011;10104;50.732;10.174;2023-04-23T00:02:47;4.10;;;2.40;;
19883;SDS011;10104;50.732;10.174;2023-04-23T00:05:13;4.70;;;2.43;;
19883;SDS011;10104;50.732;10.174;2023-04-23T00:07:36;3.03;;;2.53;;
19883;SDS011;10104;50.732;10.174;2023-04-23T00:09:59;3.27;;;2.40;;
19883;SDS011;10104;50.732;10.174;2023-04-23T00:12:21;4.97;;;3.00;;
19883;SDS011;10104;50.732;10.174;2023-04-23T00:14:43;3.73;;;2.70;;
19883;SDS011;10104;50.732;10.174;2023-04-23T00:17:05;3.90;;;2.50;;
19883;SDS011;10104;50.732;10.174;2023-04-23T00:19:26;4.77;;;3.37;;
19883;SDS011;10104;50.732;10.174;2023-04-23T00:21:48;5.10;;;2.70;;
19883;SDS011;10104;50.732;10.174;2023-04-23T00:24:09;5.77;;;2.93;;
19883;SDS011;10104;50.732;10.174;2023-04-23T00:26:31;4.97;;;2.53;;
19883;SDS011;10104;50.732;10.174;2023-04-23T00:28:52;4.53;;;3.00;;
19883;SDS011;10104;50.732;10.174;2023-04-23T00:31:14;3.43;;;2.70;;
19883;SDS011;10104;50.732;10.174;2023-04-23T00:33:35;4.67;;;2.70;;
19883;SDS011;10104;50.732;10.174;2023-04-23T00:35:57;4.13;;;2.87;;
19883;SDS011;10104;50.732;10.174;2023-04-23T00:38:18;3.57;;;2.70;;
19883;SDS011;10104;50.732;10.174;2023-04-23T00:40:41;3.67;;;2.77;;
19883;SDS011;10104;50.732;10.174;2023-04-23T00:43:03;7.27;;;3.53;;
19883;SDS011;10104;50.732;10.174;2023-04-23T00:45:25;4.57;;;2.90;;
19883;SDS011;10104;50.732;10.174;2023-04-23T00:47:46;4.37;;;3.40;;
19883;SDS011;10104;50.732;10.174;2023-04-23T00:50:08;5.07;;;3.17;;
19883;SDS011;10104;50.732;10.174;2023-04-23T00:52:30;4.37;;;3.23;;
19883;SDS011;10104;50.732;10.174;2023-04-23T00:54:51;6.97;;;3.50;;
19883;SDS011;10104;50.732;10.174;2023-04-23T00:57:13;3.50;;;3.20;;
19883;SDS011;10104;50.732;10.174;2023-04-23T00:59:34;3.87;;;2.90;;
19883;SDS011;10104;50.732;10.174;2023-04-23T01:01:56;4.27;;;3.10;;
19883;SDS011;10104;50.732;10.174;2023-04-23T01:04:18;4.13;;;3.10;;
19883;SDS011;10104;50.732;10.174;2023-04-23T01:06:43;3.57;;;3.00;;
19883;SDS011;10104;50.732;10.174;2023-04-23T01:09:07;5.67;;;2.80;;
19883;SDS011;10104;50.732;10.174;2023-04-23T01:11:30;2.80;;;2.50;;
19883;SDS011;10104;50.732;10.174;2023-04-23T01:13:52;5.17;;;3.23;;
19883;SDS011;10104;50.732;10.174;2023-04-23T01:16:13;4.47;;;2.97;;
19883;SDS011;10104;50.732;10.174;2023-04-23T01:18:35;3.23;;;2.87;;
19883;SDS011;10104;50.732;10.174;2023-04-23T01:20:57;4.17;;;2.50;;
19883;SDS011;10104;50.732;10.174;2023-04-23T01:23:19;3.93;;;2.80;;
19883;SDS011;10104;50.732;10.174;2023-04-23T01:25:40;4.07;;;2.60;;
19883;SDS011;10104;50.732;10.174;2023-04-23T01:28:03;2.63;;;2.43;;
19883;SDS011;10104;50.732;10.174;2023-04-23T01:30:26;4.10;;;2.77;;
19883;SDS011;10104;50.732;10.174;2023-04-23T01:32:48;4.50;;;2.70;;
19883;SDS011;10104;50.732;10.174;2023-04-23T01:35:10;3.57;;;2.83;;
19883;SDS011;10104;50.732;10.174;2023-04-23T01:37:33;3.00;;;2.70;;
19883;SDS011;10104;50.732;10.174;2023-04-23T01:39:56;2.90;;;2.60;;
19883;SDS011;10104;50.732;10.174;2023-04-23T01:42:18;3.53;;;2.67;;
19883;SDS011;10104;50.732;10.174;2023-04-23T01:44:40;4.23;;;2.53;;
19883;SDS011;10104;50.732;10.174;2023-04-23T01:47:01;3.10;;;2.30;;
19883;SDS011;10104;50.732;10.174;2023-04-23T01:49:27;3.07;;;2.50;;
19883;SDS011;10104;50.732;10.174;2023-04-23T01:51:48;3.60;;;2.43;;
19883;SDS011;10104;50.732;10.174;2023-04-23T01:54:10;3.47;;;2.30;;
19883;SDS011;10104;50.732;10.174;2023-04-23T01:56:31;2.33;;;2.03;;
19883;SDS011;10104;50.732;10.174;2023-04-23T01:58:55;2.83;;;2.10;;
19883;SDS011;10104;50.732;10.174;2023-04-23T02:01:17;3.33;;;2.30;;
19883;SDS011;10104;50.732;10.174;2023-04-23T02:03:38;3.97;;;2.10;;
19883;SDS011;10104;50.732;10.174;2023-04-23T02:06:00;3.23;;;2.40;;
19883;SDS011;10104;50.732;10.174;2023-04-23T02:08:22;2.77;;;2.20;;
19883;SDS011;10104;50.732;10.174;2023-04-23T02:10:43;5.00;;;2.40;;
19883;SDS011;10104;50.732;10.174;2023-04-23T02:13:05;2.70;;;2.20;;
19883;SDS011;10104;50.732;10.174;2023-04-23T02:15:27;2.70;;;2.13;;
19883;SDS011;10104;50.732;10.174;2023-04-23T02:17:49;2.63;;;2.13;;
19883;SDS011;10104;50.732;10.174;2023-04-23T02:20:13;2.53;;;2.23;;
19883;SDS011;10104;50.732;10.174;2023-04-23T02:22:38;2.90;;;2.20;;
19883;SDS011;10104;50.732;10.174;2023-04-23T02:25:01;2.67;;;2.27;;
19883;SDS011;10104;50.732;10.174;2023-04-23T02:27:22;2.43;;;2.23;;
19883;SDS011;10104;50.732;10.174;2023-04-23T02:29:44;3.60;;;2.30;;
19883;SDS011;10104;50.732;10.174;2023-04-23T02:32:06;3.87;;;2.50;;
19883;SDS011;10104;50.732;10.174;2023-04-23T02:34:28;5.87;;;2.30;;
19883;SDS011;10104;50.732;10.174;2023-04-23T02:36:49;2.40;;;2.10;;
19883;SDS011;10104;50.732;10.174;2023-04-23T02:39:11;2.50;;;2.23;;
19883;SDS011;10104;50.732;10.174;2023-04-23T02:41:32;3.50;;;2.50;;
19883;SDS011;10104;50.732;10.174;2023-04-23T02:43:54;5.07;;;2.60;;
19883;SDS011;10104;50.732;10.174;2023-04-23T02:46:15;3.30;;;2.47;;
19883;SDS011;10104;50.732;10.174;2023-04-23T02:48:38;2.57;;;1.93;;
19883;SDS011;10104;50.732;10.174;2023-04-23T02:51:01;4.30;;;2.23;;
19883;SDS011;10104;50.732;10.174;2023-04-23T02:53:23;3.30;;;2.17;;
19883;SDS011;10104;50.732;10.174;2023-04-23T02:55:44;3.13;;;2.17;;
19883;SDS011;10104;50.732;10.174;2023-04-23T02:58:06;2.30;;;2.10;;
19883;SDS011;10104;50.732;10.174;2023-04-23T03:00:27;3.07;;;2.30;;
19883;SDS011;10104;50.732;10.174;2023-04-23T03:02:49;3.00;;;2.40;;
19883;SDS011;10104;50.732;10.174;2023-04-23T03:05:11;2.53;;;2.20;;
19883;SDS011;10104;50.732;10.174;2023-04-23T03:07:32;2.50;;;2.20;;
19883;SDS011;10104;50.732;10.174;2023-04-23T03:09:54;2.30;;;2.10;;
19883;SDS011;10104;50.732;10.174;2023-04-23T03:12:15;3.70;;;2.00;;
19883;SDS011;10104;50.732;10.174;2023-04-23T03:14:38;3.23;;;1.90;;
19883;SDS011;10104;50.732;10.174;2023-04-23T03:17:00;2.53;;;2.10;;
19883;SDS011;10104;50.732;10.174;2023-04-23T03:19:21;2.77;;;2.30;;
19883;SDS011;10104;50.732;10.174;2023-04-23T03:21:43;2.13;;;1.93;;
19883;SDS011;10104;50.732;10.174;2023-04-23T03:24:04;2.27;;;2.07;;
19883;SDS011;10104;50.732;10.174;2023-04-23T03:26:26;3.17;;;2.10;;
19883;SDS011;10104;50.732;10.174;2023-04-23T03:28:48;2.30;;;2.10;;
19883;SDS011;10104;50.732;10.174;2023-04-23T03:31:09;2.33;;;2.13;;
19883;SDS011;10104;50.732;10.174;2023-04-23T03:33:31;2.93;;;2.40;;
19883;SDS011;10104;50.732;10.174;2023-04-23T03:35:52;2.23;;;1.97;;
19883;SDS011;10104;50.732;10.174;2023-04-23T03:38:14;3.17;;;2.00;;
19883;SDS011;10104;50.732;10.174;2023-04-23T03:40:35;2.30;;;2.10;;
19883;SDS011;10104;50.732;10.174;2023-04-23T03:42:57;2.73;;;1.97;;
19883;SDS011;10104;50.732;10.174;2023-04-23T03:45:20;2.57;;;2.37;;
19883;SDS011;10104;50.732;10.174;2023-04-23T03:47:41;4.13;;;2.37;;
19883;SDS011;10104;50.732;10.174;2023-04-23T03:50:04;2.57;;;2.37;;
19883;SDS011;10104;50.732;10.174;2023-04-23T03:52:27;2.53;;;2.20;;
19883;SDS011;10104;50.732;10.174;2023-04-23T03:54:48;4.37;;;2.57;;
19883;SDS011;10104;50.732;10.174;2023-04-23T03:57:10;4.23;;;2.60;;
19883;SDS011;10104;50.732;10.174;2023-04-23T03:59:34;2.63;;;2.43;;
19883;SDS011;10104;50.732;10.174;2023-04-23T04:01:56;2.60;;;2.40;;
19883;SDS011;10104;50.732;10.174;2023-04-23T04:04:18;2.57;;;2.37;;
19883;SDS011;10104;50.732;10.174;2023-04-23T04:06:40;2.73;;;2.53;;
19883;SDS011;10104;50.732;10.174;2023-04-23T04:09:02;2.77;;;2.30;;
19883;SDS011;10104;50.732;10.174;2023-04-23T04:11:23;3.70;;;2.30;;
19883;SDS011;10104;50.732;10.174;2023-04-23T04:13:45;3.23;;;2.30;;
19883;SDS011;10104;50.732;10.174;2023-04-23T04:16:06;2.30;;;2.10;;
19883;SDS011;10104;50.732;10.174;2023-04-23T04:18:28;2.47;;;2.13;;
19883;SDS011;10104;50.732;10.174;2023-04-23T04:20:49;2.50;;;2.30;;
19883;SDS011;10104;50.732;10.174;2023-04-23T04:23:12;2.60;;;2.40;;
19883;SDS011;10104;50.732;10.174;2023-04-23T04:25:33;3.83;;;2.40;;
19883;SDS011;10104;50.732;10.174;2023-04-23T04:27:59;2.93;;;2.53;;
19883;SDS011;10104;50.732;10.174;2023-04-23T04:30:21;2.80;;;2.40;;
19883;SDS011;10104;50.732;10.174;2023-04-23T04:32:44;2.53;;;2.33;;
19883;SDS011;10104;50.732;10.174;2023-04-23T04:35:06;2.73;;;2.50;;
19883;SDS011;10104;50.732;10.174;2023-04-23T04:37:33;3.17;;;2.87;;
19883;SDS011;10104;50.732;10.174;2023-04-23T04:39:55;2.73;;;2.40;;
19883;SDS011;10104;50.732;10.174;2023-04-23T04:42:17;2.60;;;2.40;;
19883;SDS011;10104;50.732;10.174;2023-04-23T04:44:41;3.07;;;2.80;;
19883;SDS011;10104;50.732;10.174;2023-04-23T04:47:04;3.20;;;2.70;;
19883;SDS011;10104;50.732;10.174;2023-04-23T04:49:28;2.83;;;2.53;;
19883;SDS011;10104;50.732;10.174;2023-04-23T04:51:49;3.67;;;2.73;;
19883;SDS011;10104;50.732;10.174;2023-04-23T04:54:11;5.20;;;3.03;;
19883;SDS011;10104;50.732;10.174;2023-04-23T04:56:33;2.87;;;2.30;;
19883;SDS011;10104;50.732;10.174;2023-04-23T04:58:55;3.80;;;2.20;;
19883;SDS011;10104;50.732;10.174;2023-04-23T05:01:16;2.70;;;2.50;;
19883;SDS011;10104;50.732;10.174;2023-04-23T05:03:38;3.90;;;2.63;;
19883;SDS011;10104;50.732;10.174;2023-04-23T05:06:00;3.87;;;2.60;;
19883;SDS011;10104;50.732;10.174;2023-04-23T05:08:21;3.43;;;2.50;;
19883;SDS011;10104;50.732;10.174;2023-04-23T05:10:43;3.53;;;2.17;;
19883;SDS011;10104;50.732;10.174;2023-04-23T05:13:04;2.60;;;2.40;;
19883;SDS011;10104;50.732;10.174;2023-04-23T05:15:26;4.73;;;2.50;;
19883;SDS011;10104;50.732;10.174;2023-04-23T05:17:48;3.00;;;2.77;;
19883;SDS011;10104;50.732;10.174;2023-04-23T05:20:13;3.73;;;2.43;;
19883;SDS011;10104;50.732;10.174;2023-04-23T05:22:39;2.57;;;2.33;;
19883;SDS011;10104;50.732;10.174;2023-04-23T05:25:01;2.57;;;2.20;;
19883;SDS011;10104;50.732;10.174;2023-04-23T05:27:24;5.97;;;2.30;;
19883;SDS011;10104;50.732;10.174;2023-04-23T05:29:45;3.50;;;2.33;;
19883;SDS011;10104;50.732;10.174;2023-04-23T05:32:07;4.40;;;2.40;;
19883;SDS011;10104;50.732;10.174;2023-04-23T05:34:29;2.97;;;2.50;;
19883;SDS011;10104;50.732;10.174;2023-04-23T05:36:50;3.17;;;2.50;;
19883;SDS011;10104;50.732;10.174;2023-04-23T05:39:12;3.13;;;1.90;;
19883;SDS011;10104;50.732;10.174;2023-04-23T05:41:33;3.07;;;2.57;;
19883;SDS011;10104;50.732;10.174;2023-04-23T05:43:55;3.47;;;2.70;;
19883;SDS011;10104;50.732;10.174;2023-04-23T05:46:17;4.73;;;2.47;;
19883;SDS011;10104;50.732;10.174;2023-04-23T05:48:39;5.13;;;2.50;;
19883;SDS011;10104;50.732;10.174;2023-04-23T05:51:00;2.70;;;2.43;;
19883;SDS011;10104;50.732;10.174;2023-04-23T05:53:22;3.63;;;3.00;;
19883;SDS011;10104;50.732;10.174;2023-04-23T05:55:43;4.27;;;2.70;;
19883;SDS011;10104;50.732;10.174;2023-04-23T05:58:05;3.00;;;2.70;;
19883;SDS011;10104;50.732;10.174;2023-04-23T06:00:26;5.03;;;3.30;;
19883;SDS011;10104;50.732;10.174;2023-04-23T06:02:48;3.90;;;3.30;;
19883;SDS011;10104;50.732;10.174;2023-04-23T06:05:10;4.47;;;3.50;;
19883;SDS011;10104;50.732;10.174;2023-04-23T06:07:32;4.17;;;3.60;;
19883;SDS011;10104;50.732;10.174;2023-04-23T06:09:54;5.07;;;3.73;;
19883;SDS011;10104;50.732;10.174;2023-04-23T06:12:16;4.33;;;3.77;;
19883;SDS011;10104;50.732;10.174;2023-04-23T06:14:38;4.67;;;4.07;;
19883;SDS011;10104;50.732;10.174;2023-04-23T06:17:00;4.40;;;4.00;;
19883;SDS011;10104;50.732;10.174;2023-04-23T06:19:21;4.40;;;4.00;;
19883;SDS011;10104;50.732;10.174;2023-04-23T06:21:45;6.27;;;4.97;;
19883;SDS011;10104;50.732;10.174;2023-04-23T06:24:07;6.53;;;4.37;;
19883;SDS011;10104;50.732;10.174;2023-04-23T06:26:28;5.00;;;4.40;;
19883;SDS011;10104;50.732;10.174;2023-04-23T06:28:52;6.90;;;4.40;;
19883;SDS011;10104;50.732;10.174;2023-04-23T06:31:14;5.40;;;4.50;;
19883;SDS011;10104;50.732;10.174;2023-04-23T06:33:36;5.23;;;4.67;;
19883;SDS011;10104;50.732;10.174;2023-04-23T06:35:57;5.43;;;4.93;;
19883;SDS011;10104;50.732;10.174;2023-04-23T06:38:19;7.03;;;5.10;;
19883;SDS011;10104;50.732;10.174;2023-04-23T06:40:43;7.63;;;5.23;;
19883;SDS011;10104;50.732;10.174;2023-04-23T06:43:04;7.00;;;5.17;;
19883;SDS011;10104;50.732;10.174;2023-04-23T06:45:28;5.80;;;5.20;;
19883;SDS011;10104;50.732;10.174;2023-04-23T06:47:51;5.50;;;5.00;;
19883;SDS011;10104;50.732;10.174;2023-04-23T06:50:13;7.33;;;5.23;;
19883;SDS011;10104;50.732;10.174;2023-04-23T06:52:35;6.17;;;5.57;;
19883;SDS011;10104;50.732;10.174;2023-04-23T06:54:56;5.57;;;4.90;;
19883;SDS011;10104;50.732;10.174;2023-04-23T06:57:18;6.67;;;5.17;;
19883;SDS011;10104;50.732;10.174;2023-04-23T06:59:39;5.33;;;4.83;;
19883;SDS011;10104;50.732;10.174;2023-04-23T07:02:01;5.17;;;4.67;;
19883;SDS011;10104;50.732;10.174;2023-04-23T07:04:22;5.03;;;4.53;;
19883;SDS011;10104;50.732;10.174;2023-04-23T07:06:44;4.60;;;4.20;;
19883;SDS011;10104;50.732;10.174;2023-04-23T07:09:05;4.57;;;4.07;;
19883;SDS011;10104;50.732;10.174;2023-04-23T07:11:27;4.40;;;4.00;;
19883;SDS011;10104;50.732;10.174;2023-04-23T07:13:51;4.77;;;4.20;;
19883;SDS011;10104;50.732;10.174;2023-04-23T07:16:12;4.57;;;4.13;;
19883;SDS011;10104;50.732;10.174;2023-04-23T07:18:34;4.60;;;4.20;;
19883;SDS011;10104;50.732;10.174;2023-04-23T07:20:55;4.33;;;3.93;;
19883;SDS011;10104;50.732;10.174;2023-04-23T07:23:17;5.00;;;4.30;;
19883;SDS011;10104;50.732;10.174;2023-04-23T07:25:38;4.43;;;4.03;;
19883;SDS011;10104;50.732;10.174;2023-04-23T07:28:00;6.90;;;4.63;;
19883;SDS011;10104;50.732;10.174;2023-04-23T07:30:22;5.37;;;4.13;;
19883;SDS011;10104;50.732;10.174;2023-04-23T07:32:44;3.97;;;3.57;;
19883;SDS011;10104;50.732;10.174;2023-04-23T07:35:07;6.13;;;4.00;;
19883;SDS011;10104;50.732;10.174;2023-04-23T07:37:30;5.10;;;4.40;;
19883;SDS011;10104;50.732;10.174;2023-04-23T07:39:52;5.17;;;4.50;;
19883;SDS011;10104;50.732;10.174;2023-04-23T07:42:14;5.13;;;4.53;;
19883;SDS011;10104;50.732;10.174;2023-04-23T07:44:35;5.78;;;4.40;;
19883;SDS011;10104;50.732;10.174;2023-04-23T07:46:57;4.13;;;3.72;;
19883;SDS011;10104;50.732;10.174;2023-04-23T07:49:18;4.32;;;3.92;;
19883;SDS011;10104;50.732;10.174;2023-04-23T07:51:40;3.80;;;3.00;;
19883;SDS011;10104;50.732;10.174;2023-04-23T07:54:01;4.30;;;3.90;;
19883;SDS011;10104;50.732;10.174;2023-04-23T07:56:23;6.00;;;4.22;;
19883;SDS011;10104;50.732;10.174;2023-04-23T07:58:45;4.32;;;3.90;;
19883;SDS011;10104;50.732;10.174;2023-04-23T08:01:06;4.07;;;3.42;;
19883;SDS011;10104;50.732;10.174;2023-04-23T08:03:28;4.05;;;3.67;;
19883;SDS011;10104;50.732;10.174;2023-04-23T08:05:49;4.15;;;3.75;;
19883;SDS011;10104;50.732;10.174;2023-04-23T08:08:11;5.07;;;3.53;;
19883;SDS011;10104;50.732;10.174;2023-04-23T08:10:33;3.80;;;3.30;;
19883;SDS011;10104;50.732;10.174;2023-04-23T08:12:55;3.90;;;3.50;;
19883;SDS011;10104;50.732;10.174;2023-04-23T08:15:17;4.68;;;3.40;;
19883;SDS011;10104;50.732;10.174;2023-04-23T08:17:38;5.38;;;3.47;;
19883;SDS011;10104;50.732;10.174;2023-04-23T08:20:00;4.32;;;3.35;;
19883;SDS011;10104;50.732;10.174;2023-04-23T08:22:21;4.28;;;3.83;;
19883;SDS011;10104;50.732;10.174;2023-04-23T08:24:43;5.05;;;3.70;;
19883;SDS011;10104;50.732;10.174;2023-04-23T08:27:06;3.28;;;2.90;;
19883;SDS011;10104;50.732;10.174;2023-04-23T08:29:28;4.88;;;3.17;;
19883;SDS011;10104;50.732;10.174;2023-04-23T08:31:49;4.32;;;2.97;;
19883;SDS011;10104;50.732;10.174;2023-04-23T08:34:11;3.67;;;3.00;;
19883;SDS011;10104;50.732;10.174;2023-04-23T08:36:32;4.40;;;3.45;;
19883;SDS011;10104;50.732;10.174;2023-04-23T08:38:54;3.25;;;2.95;;
19883;SDS011;10104;50.732;10.174;2023-04-23T08:41:16;3.95;;;2.72;;
19883;SDS011;10104;50.732;10.174;2023-04-23T08:43:43;4.78;;;2.80;;
19883;SDS011;10104;50.732;10.174;2023-04-23T08:46:11;3.10;;;2.80;;
19883;SDS011;10104;50.732;10.174;2023-04-23T08:48:35;3.47;;;3.17;;
19883;SDS011;10104;50.732;10.174;2023-04-23T08:50:56;6.43;;;3.10;;
19883;SDS011;10104;50.732;10.174;2023-04-23T08:53:22;4.60;;;2.97;;
19883;SDS011;10104;50.732;10.174;2023-04-23T08:55:46;3.95;;;3.15;;
19883;SDS011;10104;50.732;10.174;2023-04-23T08:58:10;3.30;;;2.97;;
19883;SDS011;10104;50.732;10.174;2023-04-23T09:00:32;3.25;;;2.95;;
19883;SDS011;10104;50.732;10.174;2023-04-23T09:02:55;3.97;;;3.33;;
19883;SDS011;10104;50.732;10.174;2023-04-23T09:05:17;3.45;;;2.83;;
19883;SDS011;10104;50.732;10.174;2023-04-23T09:07:39;3.58;;;2.85;;
19883;SDS011;10104;50.732;10.174;2023-04-23T09:10:02;4.65;;;3.13;;
19883;SDS011;10104;50.732;10.174;2023-04-23T09:12:25;3.70;;;3.40;;
19883;SDS011;10104;50.732;10.174;2023-04-23T09:14:48;5.43;;;3.17;;
19883;SDS011;10104;50.732;10.174;2023-04-23T09:17:10;3.28;;;2.90;;
19883;SDS011;10104;50.732;10.174;2023-04-23T09:19:31;5.53;;;3.03;;
19883;SDS011;10104;50.732;10.174;2023-04-23T09:21:53;3.47;;;3.03;;
19883;SDS011;10104;50.732;10.174;2023-04-23T09:24:15;4.15;;;2.90;;
19883;SDS011;10104;50.732;10.174;2023-04-23T09:26:44;3.20;;;2.80;;
19883;SDS011;10104;50.732;10.174;2023-04-23T09:29:11;4.05;;;2.92;;
19883;SDS011;10104;50.732;10.174;2023-04-23T09:31:33;3.83;;;2.83;;
19883;SDS011;10104;50.732;10.174;2023-04-23T09:33:55;3.05;;;2.75;;
19883;SDS011;10104;50.732;10.174;2023-04-23T09:36:19;3.58;;;2.72;;
19883;SDS011;10104;50.732;10.174;2023-04-23T09:38:42;3.30;;;3.00;;
19883;SDS011;10104;50.732;10.174;2023-04-23T09:41:22;2.80;;;2.60;;
19883;SDS011;10104;50.732;10.174;2023-04-23T09:43:46;3.15;;;2.85;;
19883;SDS011;10104;50.732;10.174;2023-04-23T09:46:08;3.17;;;2.88;;
19883;SDS011;10104;50.732;10.174;2023-04-23T09:48:39;3.20;;;2.90;;
19883;SDS011;10104;50.732;10.174;2023-04-23T09:51:02;4.50;;;3.13;;
19883;SDS011;10104;50.732;10.174;2023-04-23T09:53:24;3.28;;;2.80;;
19883;SDS011;10104;50.732;10.174;2023-04-23T09:55:46;2.88;;;2.58;;
19883;SDS011;10104;50.732;10.174;2023-04-23T09:58:11;3.10;;;2.80;;
19883;SDS011;10104;50.732;10.174;2023-04-23T10:00:37;2.88;;;2.58;;
19883;SDS011;10104;50.732;10.174;2023-04-23T10:02:59;3.47;;;2.95;;
19883;SDS011;10104;50.732;10.174;2023-04-23T10:05:21;3.95;;;2.70;;
19883;SDS011;10104;50.732;10.174;2023-04-23T10:07:49;4.30;;;2.33;;
19883;SDS011;10104;50.732;10.174;2023-04-23T10:10:14;4.55;;;2.53;;
19883;SDS011;10104;50.732;10.174;2023-04-23T10:12:36;2.78;;;2.33;;
19883;SDS011;10104;50.732;10.174;2023-04-23T10:15:15;2.45;;;2.25;;
19883;SDS011;10104;50.732;10.174;2023-04-23T10:17:37;2.75;;;2.35;;
19883;SDS011;10104;50.732;10.174;2023-04-23T10:20:00;2.97;;;2.45;;
19883;SDS011;10104;50.732;10.174;2023-04-23T10:22:21;2.60;;;2.35;;
19883;SDS011;10104;50.732;10.174;2023-04-23T10:24:50;2.63;;;2.42;;
19883;SDS011;10104;50.732;10.174;2023-04-23T10:27:15;2.38;;;2.17;;
19883;SDS011;10104;50.732;10.174;2023-04-23T10:29:57;6.00;;;2.13;;
19883;SDS011;10104;50.732;10.174;2023-04-23T10:32:20;2.50;;;2.25;;
19883;SDS011;10104;50.732;10.174;2023-04-23T10:34:42;3.03;;;2.10;;
19883;SDS011;10104;50.732;10.174;2023-04-23T10:37:03;2.33;;;2.13;;
19883;SDS011;10104;50.732;10.174;2023-04-23T10:39:30;2.70;;;2.38;;
19883;SDS011;10104;50.732;10.174;2023-04-23T10:41:54;2.30;;;2.10;;
19883;SDS011;10104;50.732;10.174;2023-04-23T10:44:16;2.38;;;2.03;;
19883;SDS011;10104;50.732;10.174;2023-04-23T10:47:01;2.20;;;2.00;;
19883;SDS011;10104;50.732;10.174;2023-04-23T10:49:24;3.75;;;1.90;;
19883;SDS011;10104;50.732;10.174;2023-04-23T10:51:46;2.53;;;2.15;;
19883;SDS011;10104;50.732;10.174;2023-04-23T10:54:14;1.77;;;1.60;;
19883;SDS011;10104;50.732;10.174;2023-04-23T10:56:37;2.10;;;1.67;;
19883;SDS011;10104;50.732;10.174;2023-04-23T10:58:59;2.30;;;1.80;;
19883;SDS011;10104;50.732;10.174;2023-04-23T11:01:27;3.03;;;1.75;;
19883;SDS011;10104;50.732;10.174;2023-04-23T11:03:50;1.92;;;1.65;;
19883;SDS011;10104;50.732;10.174;2023-04-23T11:06:13;3.25;;;1.88;;
19883;SDS011;10104;50.732;10.174;2023-04-23T11:08:55;2.75;;;1.80;;
19883;SDS011;10104;50.732;10.174;2023-04-23T11:11:17;2.35;;;1.92;;
19883;SDS011;10104;50.732;10.174;2023-04-23T11:13:40;2.40;;;1.83;;
19883;SDS011;10104;50.732;10.174;2023-04-23T11:16:14;3.50;;;1.73;;
19883;SDS011;10104;50.732;10.174;2023-04-23T11:18:58;2.80;;;2.10;;
19883;SDS011;10104;50.732;10.174;2023-04-23T11:24:16;2.35;;;1.70;;
19883;SDS011;10104;50.732;10.174;2023-04-23T11:26:37;2.05;;;1.70;;
19883;SDS011;10104;50.732;10.174;2023-04-23T11:29:02;3.38;;;1.60;;
19883;SDS011;10104;50.732;10.174;2023-04-23T11:31:24;3.70;;;1.70;;
19883;SDS011;10104;50.732;10.174;2023-04-23T11:33:47;1.73;;;1.35;;
19883;SDS011;10104;50.732;10.174;2023-04-23T11:36:08;3.63;;;1.73;;
19883;SDS011;10104;50.732;10.174;2023-04-23T11:38:30;2.20;;;1.42;;
19883;SDS011;10104;50.732;10.174;2023-04-23T11:40:53;2.40;;;1.38;;
19883;SDS011;10104;50.732;10.174;2023-04-23T11:43:18;1.40;;;1.30;;
19883;SDS011;10104;50.732;10.174;2023-04-23T11:45:41;2.00;;;1.27;;
19883;SDS011;10104;50.732;10.174;2023-04-23T11:48:03;2.00;;;1.40;;
19883;SDS011;10104;50.732;10.174;2023-04-23T11:50:27;1.67;;;1.30;;
19883;SDS011;10104;50.732;10.174;2023-04-23T11:52:53;1.95;;;1.52;;
19883;SDS011;10104;50.732;10.174;2023-04-23T11:55:15;1.98;;;1.65;;
19883;SDS011;10104;50.732;10.174;2023-04-23T11:57:41;2.08;;;1.55;;
19883;SDS011;10104;50.732;10.174;2023-04-23T12:00:13;3.50;;;1.40;;
19883;SDS011;10104;50.732;10.174;2023-04-23T12:03:02;2.25;;;1.80;;
19883;SDS011;10104;50.732;10.174;2023-04-23T12:05:27;3.92;;;1.60;;
19883;SDS011;10104;50.732;10.174;2023-04-23T12:07:50;1.55;;;1.45;;
19883;SDS011;10104;50.732;10.174;2023-04-23T12:10:15;1.60;;;1.50;;
19883;SDS011;10104;50.732;10.174;2023-04-23T12:12:38;1.92;;;1.20;;
19883;SDS011;10104;50.732;10.174;2023-04-23T12:15:03;1.60;;;1.42;;
19883;SDS011;10104;50.732;10.174;2023-04-23T12:17:26;2.25;;;1.45;;
19883;SDS011;10104;50.732;10.174;2023-04-23T12:19:47;2.10;;;1.52;;
19883;SDS011;10104;50.732;10.174;2023-04-23T12:22:10;2.22;;;1.60;;
19883;SDS011;10104;50.732;10.174;2023-04-23T12:24:50;4.00;;;1.42;;
19883;SDS011;10104;50.732;10.174;2023-04-23T12:27:14;2.20;;;1.60;;
19883;SDS011;10104;50.732;10.174;2023-04-23T12:29:36;1.77;;;1.52;;
19883;SDS011;10104;50.732;10.174;2023-04-23T12:31:58;1.48;;;1.35;;
19883;SDS011;10104;50.732;10.174;2023-04-23T12:34:20;1.27;;;1.17;;
19883;SDS011;10104;50.732;10.174;2023-04-23T12:36:46;2.85;;;1.30;;
19883;SDS011;10104;50.732;10.174;2023-04-23T12:39:26;2.50;;;1.40;;
19883;SDS011;10104;50.732;10.174;2023-04-23T12:41:53;2.30;;;1.38;;
19883;SDS011;10104;50.732;10.174;2023-04-23T12:44:16;2.10;;;1.40;;
19883;SDS011;10104;50.732;10.174;2023-04-23T12:46:38;2.22;;;1.50;;
19883;SDS011;10104;50.732;10.174;2023-04-23T12:48:59;3.28;;;1.73;;
19883;SDS011;10104;50.732;10.174;2023-04-23T12:51:21;1.40;;;1.30;;
19883;SDS011;10104;50.732;10.174;2023-04-23T12:53:42;1.55;;;1.45;;
19883;SDS011;10104;50.732;10.174;2023-04-23T12:56:04;1.88;;;1.40;;
19883;SDS011;10104;50.732;10.174;2023-04-23T12:58:26;2.00;;;1.33;;
19883;SDS011;10104;50.732;10.174;2023-04-23T13:00:48;2.97;;;1.30;;
19883;SDS011;10104;50.732;10.174;2023-04-23T13:03:09;1.77;;;1.30;;
19883;SDS011;10104;50.732;10.174;2023-04-23T13:05:34;1.52;;;1.20;;
19883;SDS011;10104;50.732;10.174;2023-04-23T13:07:55;2.10;;;1.40;;
19883;SDS011;10104;50.732;10.174;2023-04-23T13:10:17;2.97;;;1.40;;
19883;SDS011;10104;50.732;10.174;2023-04-23T13:12:38;2.15;;;1.50;;
19883;SDS011;10104;50.732;10.174;2023-04-23T13:15:00;3.47;;;1.85;;
19883;SDS011;10104;50.732;10.174;2023-04-23T13:17:22;1.55;;;1.20;;
19883;SDS011;10104;50.732;10.174;2023-04-23T13:19:46;1.80;;;1.10;;
19883;SDS011;10104;50.732;10.174;2023-04-23T13:22:07;2.60;;;1.30;;
19883;SDS011;10104;50.732;10.174;2023-04-23T13:24:29;1.70;;;1.10;;
19883;SDS011;10104;50.732;10.174;2023-04-23T13:26:50;2.35;;;1.15;;
19883;SDS011;10104;50.732;10.174;2023-04-23T13:29:12;2.08;;;1.20;;
19883;SDS011;10104;50.732;10.174;2023-04-23T13:31:33;1.63;;;1.30;;
19883;SDS011;10104;50.732;10.174;2023-04-23T13:33:55;2.75;;;1.30;;
19883;SDS011;10104;50.732;10.174;2023-04-23T13:36:18;1.90;;;1.20;;
19883;SDS011;10104;50.732;10.174;2023-04-23T13:38:40;2.92;;;1.20;;
19883;SDS011;10104;50.732;10.174;2023-04-23T13:41:01;2.08;;;1.50;;
19883;SDS011;10104;50.732;10.174;2023-04-23T13:43:23;3.10;;;1.27;;
19883;SDS011;10104;50.732;10.174;2023-04-23T13:45:45;1.67;;;1.38;;
19883;SDS011;10104;50.732;10.174;2023-04-23T13:48:07;1.33;;;1.13;;
19883;SDS011;10104;50.732;10.174;2023-04-23T13:50:28;2.25;;;1.42;;
19883;SDS011;10104;50.732;10.174;2023-04-23T13:52:50;2.83;;;1.75;;
19883;SDS011;10104;50.732;10.174;2023-04-23T13:55:12;1.65;;;1.38;;
19883;SDS011;10104;50.732;10.174;2023-04-23T13:57:33;2.80;;;1.30;;
19883;SDS011;10104;50.732;10.174;2023-04-23T13:59:55;1.30;;;1.20;;
19883;SDS011;10104;50.732;10.174;2023-04-23T14:02:16;2.22;;;1.40;;
19883;SDS011;10104;50.732;10.174;2023-04-23T14:04:38;1.90;;;1.45;;
19883;SDS011;10104;50.732;10.174;2023-04-23T14:07:00;2.42;;;1.33;;
19883;SDS011;10104;50.732;10.174;2023-04-23T14:09:21;2.72;;;1.42;;